Time;durP1;ratioP1;P1;durP2;ratioP2;P2;SDS_P1;SDS_P2;PMS_P1;PMS_P2;Temp;Humidity;BMP_temperature;BMP_pressure;BME280_temperature;BME280_humidity;BME280_pressure;Samples;Min_cycle;Max_cycle;Signal;HPM_P1;HPM_P2
2023/01/13 00:00:14;;;;;;;;;0.00;0.00;;;;;13.44;72.05;100980.97;2013449;28;2719097;-78
2023/01/13 00:01:28;;;;;;;;;0.00;0.00;;;;;13.43;72.34;100976.66;2012261;28;2730474;-78
2023/01/13 00:02:41;;;;;;;;;1.00;0.00;;;;;13.43;72.36;100974.00;2020789;28;2733626;-78
2023/01/13 00:03:55;;;;;;;;;0.00;0.00;;;;;13.43;72.24;100979.28;2019634;28;2733614;-78
2023/01/13 00:05:09;;;;;;;;;0.17;0.00;;;;;13.44;72.22;100969.56;1990623;28;2733619;-78
2023/01/13 00:06:28;;;;;;;;;0.67;0.67;;;;;13.45;72.12;100966.88;1990195;28;2728402;-78
2023/01/13 00:07:42;;;;;;;;;1.33;0.00;;;;;13.44;72.29;100970.44;2012334;28;2728450;-78
2023/01/13 00:08:55;;;;;;;;;0.33;0.00;;;;;13.44;72.25;100954.59;1990680;28;2723191;-78
2023/01/13 00:10:10;;;;;;;;;0.67;0.00;;;;;13.45;72.27;100961.59;2007088;28;2725290;-78
2023/01/13 00:11:24;;;;;;;;;0.50;0.00;;;;;13.45;72.30;100958.94;1983165;28;2725782;-79
2023/01/13 00:12:39;;;;;;;;;0.00;0.00;;;;;13.44;72.46;100962.50;2006699;28;2717968;-78
2023/01/13 00:13:53;;;;;;;;;0.17;0.00;;;;;13.44;72.42;100959.00;1983279;28;2731501;-78
2023/01/13 00:15:07;;;;;;;;;1.00;0.00;;;;;13.45;72.39;100963.38;1983251;28;2725664;-78
2023/01/13 00:16:21;;;;;;;;;0.00;0.00;;;;;13.45;72.60;100977.44;2006040;28;2724232;-78
2023/01/13 00:17:34;;;;;;;;;0.00;0.00;;;;;13.46;72.22;100988.84;2005603;28;2739872;-78
2023/01/13 00:18:47;;;;;;;;;1.33;0.00;;;;;13.45;72.36;101000.34;1991138;28;2722146;-78
2023/01/13 00:20:01;;;;;;;;;0.00;0.00;;;;;13.43;72.09;100997.78;2020946;28;2733626;-77
2023/01/13 00:21:23;;;;;;;;;0.67;0.00;;;;;13.41;72.21;100996.94;1989867;28;2731532;-77
2023/01/13 00:22:37;;;;;;;;;0.33;0.00;;;;;13.38;72.44;100995.28;1990834;28;2724232;-77
2023/01/13 00:23:52;;;;;;;;;1.00;0.00;;;;;13.38;72.54;100999.72;1989873;28;2731563;-77
2023/01/13 00:25:06;;;;;;;;;0.00;0.00;;;;;13.36;72.10;100993.63;1990351;28;2727362;-78
2023/01/13 00:26:22;;;;;;;;;0.17;0.00;;;;;13.35;72.08;100999.84;1990336;28;2725768;-78
2023/01/13 00:27:35;;;;;;;;;0.00;0.00;;;;;13.34;72.03;100990.19;2007439;28;2722162;-77
2023/01/13 00:28:48;;;;;;;;;0.00;0.00;;;;;13.33;71.75;100988.50;1983809;28;2722134;-77
2023/01/13 00:30:02;;;;;;;;;1.00;0.00;;;;;13.30;71.67;100988.63;2009110;28;2714874;-77
2023/01/13 00:31:18;;;;;;;;;0.00;0.00;;;;;13.28;71.61;100994.81;2006182;28;2714866;-78
2023/01/13 00:32:31;;;;;;;;;0.00;0.00;;;;;13.27;71.55;100997.50;2007464;28;2697210;-77
2023/01/13 00:33:45;;;;;;;;;0.00;0.00;;;;;13.26;71.24;100995.81;2006526;28;2721123;-77
2023/01/13 00:34:58;;;;;;;;;0.67;0.00;;;;;13.24;70.99;100997.63;2005780;28;2718487;-77
2023/01/13 00:36:14;;;;;;;;;0.00;0.00;;;;;13.20;70.74;100998.69;2006723;28;2703396;-77
2023/01/13 00:37:27;;;;;;;;;0.00;0.00;;;;;13.18;70.47;100990.84;2007209;28;2704907;-77
2023/01/13 00:38:44;;;;;;;;;0.00;0.00;;;;;13.16;70.55;100992.69;2010627;28;2714846;-77
2023/01/13 00:39:57;;;;;;;;;0.00;0.00;;;;;13.11;69.75;100981.44;2014013;28;2714858;-77
2023/01/13 00:41:16;;;;;;;;;0.00;0.00;;;;;13.07;70.30;100977.19;2015242;28;2710683;-77
2023/01/13 00:44:01;;;;;;;;;0.00;0.00;;;;;13.03;70.23;100985.25;1992366;28;2694017;-77
2023/01/13 00:45:14;;;;;;;;;0.50;0.00;;;;;13.01;70.66;100976.50;2015621;28;2700283;-77
2023/01/13 00:46:27;;;;;;;;;0.00;0.00;;;;;13.00;70.62;100977.44;2014742;28;2710676;-77
2023/01/13 00:47:41;;;;;;;;;0.00;0.00;;;;;13.00;70.80;100971.31;2007574;28;2699290;-77
2023/01/13 00:48:54;;;;;;;;;1.67;0.33;;;;;13.00;70.78;100973.94;2013669;28;2725266;-77
2023/01/13 00:50:08;;;;;;;;;0.00;0.00;;;;;13.00;70.69;100981.84;2013040;28;2727370;-77
2023/01/13 00:51:21;;;;;;;;;0.00;0.00;;;;;12.98;70.46;100971.38;2013290;28;2721096;-77
2023/01/13 00:52:34;;;;;;;;;0.00;0.00;;;;;12.98;71.05;100974.03;2015521;28;2703416;-77
2023/01/13 00:53:49;;;;;;;;;0.00;0.00;;;;;12.97;70.88;100966.13;2020887;28;2703404;-77
2023/01/13 00:55:03;;;;;;;;;0.00;0.00;;;;;12.97;70.48;100972.28;2015076;28;2704449;-77
2023/01/13 00:56:21;;;;;;;;;1.00;0.00;;;;;12.97;70.94;100972.28;2014474;28;2702417;-77
2023/01/13 00:57:34;;;;;;;;;0.00;0.00;;;;;12.95;70.94;100966.22;2013975;28;2725275;-77
2023/01/13 00:58:48;;;;;;;;;0.00;0.00;;;;;12.96;70.92;100965.31;2013808;28;2712763;-77
2023/01/13 01:00:01;;;;;;;;;0.00;0.00;;;;;12.96;70.84;100973.22;2011464;28;2714838;-77
2023/01/13 01:01:21;;;;;;;;;1.33;0.00;;;;;12.95;71.18;100966.22;2014703;28;2714878;-77
2023/01/13 01:02:34;;;;;;;;;1.00;0.00;;;;;12.94;71.16;100973.25;2012445;28;2723199;-77
2023/01/13 01:03:49;;;;;;;;;0.00;0.00;;;;;12.94;71.14;100970.63;2013278;28;2714874;-77
2023/01/13 01:05:02;;;;;;;;;1.33;0.00;;;;;12.94;71.14;100975.03;2014046;28;2712778;-78
2023/01/13 01:06:18;;;;;;;;;0.00;0.00;;;;;12.94;71.20;100985.59;2013084;28;2724233;-77
2023/01/13 01:07:31;;;;;;;;;0.00;0.00;;;;;12.93;71.36;100982.13;2013044;28;2712758;-77
2023/01/13 01:08:45;;;;;;;;;1.00;0.00;;;;;12.93;71.27;100982.13;2005882;28;2729441;-77
2023/01/13 01:09:58;;;;;;;;;0.00;0.00;;;;;12.93;71.11;100984.75;2006559;28;2716929;-77
2023/01/13 01:11:17;;;;;;;;;0.00;0.00;;;;;12.92;71.11;100974.25;2005959;28;2716921;-77
2023/01/13 01:12:30;;;;;;;;;0.00;0.00;;;;;12.91;71.23;100977.81;2006053;28;2724240;-77
2023/01/13 01:13:44;;;;;;;;;0.33;0.00;;;;;12.90;71.34;100976.94;2004714;28;2729477;-77
2023/01/13 01:14:57;;;;;;;;;0.00;0.00;;;;;12.89;71.35;100977.84;2005510;28;2722849;-77
2023/01/13 01:16:13;;;;;;;;;0.00;0.00;;;;;12.90;71.06;100976.09;2012882;28;2719016;-78
2023/01/13 01:17:27;;;;;;;;;0.00;0.00;;;;;12.88;70.85;100970.00;2014564;28;2719021;-77
2023/01/13 01:18:43;;;;;;;;;0.00;0.00;;;;;12.88;71.38;100976.16;2014113;28;2714838;-77
2023/01/13 01:19:56;;;;;;;;;0.17;0.00;;;;;12.87;71.11;100979.69;2014644;28;2712787;-77
2023/01/13 01:21:10;;;;;;;;;0.50;0.00;;;;;12.87;71.29;100974.44;2013369;28;2723179;-77
2023/01/13 01:22:23;;;;;;;;;0.00;0.00;;;;;12.86;71.25;100974.50;2014280;28;2712775;-77
2023/01/13 01:23:38;;;;;;;;;0.00;0.00;;;;;12.86;71.21;100980.63;2013737;28;2721116;-77
2023/01/13 01:24:51;;;;;;;;;1.67;0.00;;;;;12.87;70.97;100973.56;2014860;28;2712771;-77
2023/01/13 01:26:16;;;;;;;;;0.00;0.00;;;;;12.85;70.87;100983.31;2013011;28;2716949;-77
2023/01/13 01:27:30;;;;;;;;;0.00;0.00;;;;;12.83;71.50;100975.47;2008721;28;2701309;-77
2023/01/13 01:28:43;;;;;;;;;0.00;0.00;;;;;12.82;71.41;100973.75;2018967;28;2724232;-77
2023/01/13 01:29:56;;;;;;;;;0.00;0.00;;;;;12.81;71.16;100972.91;2014493;28;2704461;-77
2023/01/13 01:31:20;;;;;;;;;0.00;0.00;;;;;12.82;71.31;100969.34;2014655;28;2706513;-77
2023/01/13 01:32:33;;;;;;;;;0.00;0.00;;;;;12.82;71.49;100965.81;2019787;28;2704422;-77
2023/01/13 01:33:47;;;;;;;;;0.00;0.00;;;;;12.81;71.72;100970.28;2014643;28;2712802;-77
2023/01/13 01:35:00;;;;;;;;;0.00;0.00;;;;;12.81;71.45;100959.72;2014263;28;2702462;-77
2023/01/13 01:36:16;;;;;;;;;0.00;0.00;;;;;12.78;71.35;100962.47;2013817;28;2706529;-77
2023/01/13 01:37:29;;;;;;;;;0.00;0.00;;;;;12.79;71.45;100973.88;2020993;28;2722134;-77
2023/01/13 01:38:43;;;;;;;;;0.00;0.00;;;;;12.78;71.09;100970.38;2019548;28;2714865;-77
2023/01/13 01:39:57;;;;;;;;;0.00;0.00;;;;;12.77;71.65;100968.66;2014295;28;2704450;-77
2023/01/13 01:41:14;;;;;;;;;0.00;0.00;;;;;12.77;70.82;100962.50;2013367;28;2716375;-77
2023/01/13 01:44:07;;;;;;;;;0.00;0.00;;;;;12.72;70.45;100962.69;2013860;28;2712244;-77
2023/01/13 01:45:23;;;;;;;;;0.00;0.00;;;;;12.71;70.69;100966.25;2012946;28;2716933;-77
2023/01/13 01:46:40;;;;;;;;;0.00;0.00;;;;;12.69;70.95;100968.94;2019447;28;2722165;-77
2023/01/13 01:48:01;;;;;;;;;0.00;0.00;;;;;12.69;71.03;100962.81;2014232;28;2704421;-77
2023/01/13 01:49:22;;;;;;;;;1.67;0.00;;;;;12.69;71.10;100968.09;2010864;28;2723191;-77
2023/01/13 01:50:37;;;;;;;;;0.00;0.00;;;;;12.69;70.84;100958.38;2005991;28;2721111;-77
2023/01/13 01:52:05;;;;;;;;;0.00;0.00;;;;;12.71;70.74;100950.44;2006130;28;2710684;-77
2023/01/13 01:53:23;;;;;;;;;0.00;0.00;;;;;12.70;70.82;100969.81;2006036;28;2730550;-77
2023/01/13 01:55:03;;;;;;;;;0.00;0.00;;;;;12.69;70.59;100955.75;1990940;28;2720066;-77
2023/01/13 01:56:17;;;;;;;;;0.00;0.00;;;;;12.66;70.30;100965.56;2012208;28;2733615;-77
2023/01/13 01:57:49;;;;;;;;;0.00;0.00;;;;;12.64;70.70;100970.91;2013949;28;2709657;-77
2023/01/13 01:59:03;;;;;;;;;0.00;0.00;;;;;12.63;70.82;100969.19;2013928;28;2713797;-77
2023/01/13 02:00:16;;;;;;;;;0.00;0.00;;;;;12.63;70.29;100966.53;2013737;28;2707586;-77
2023/01/13 02:01:32;;;;;;;;;0.67;0.00;;;;;12.62;70.59;100972.72;2014058;28;2722187;-77
2023/01/13 02:02:48;;;;;;;;;0.00;0.00;;;;;12.62;70.41;100974.53;2014385;28;2706524;-77
2023/01/13 02:04:11;;;;;;;;;1.00;0.00;;;;;12.62;70.47;100977.16;2013378;28;2727330;-77
2023/01/13 02:05:24;;;;;;;;;0.17;0.00;;;;;12.62;70.11;100988.53;2012594;28;2723186;-77
2023/01/13 02:06:38;;;;;;;;;0.00;0.00;;;;;12.61;69.94;100989.47;2014071;28;2719068;-77
2023/01/13 02:07:54;;;;;;;;;0.00;0.00;;;;;12.60;70.41;100985.13;2009072;28;2725255;-77
2023/01/13 02:09:08;;;;;;;;;0.67;0.00;;;;;12.59;69.93;100994.78;2014700;28;2714897;-77
2023/01/13 02:10:26;;;;;;;;;0.83;0.83;;;;;12.58;69.78;100985.19;2006967;28;2738792;-77
2023/01/13 02:13:12;;;;;;;;;1.17;0.00;;;;;12.58;69.52;100989.59;2018693;28;2725743;-77
2023/01/13 02:14:28;;;;;;;;;0.00;0.00;;;;;12.57;70.31;100987.84;1991181;28;2731535;-77
2023/01/13 02:15:51;;;;;;;;;0.00;0.00;;;;;12.56;69.58;100988.78;2014425;28;2703389;-77
2023/01/13 02:17:15;;;;;;;;;0.50;0.00;;;;;12.56;69.88;100984.38;2012563;28;2729452;-77
2023/01/13 02:18:37;;;;;;;;;0.67;0.00;;;;;12.57;70.07;100987.84;2007127;28;2721127;-77
2023/01/13 02:20:22;;;;;;;;;0.00;0.00;;;;;12.56;70.53;100984.38;2007025;28;2724205;-77
2023/01/13 02:22:14;;;;;;;;;0.00;0.00;;;;;12.56;70.22;100994.94;2005820;28;2722193;-77
2023/01/13 02:25:54;;;;;;;;;1.50;0.00;;;;;12.51;69.62;100996.00;2006887;28;2731493;-77
2023/01/13 02:27:16;;;;;;;;;0.00;0.00;;;;;12.49;69.74;100996.91;2014616;28;2722153;-77
2023/01/13 02:31:40;;;;;;;;;0.00;0.00;;;;;12.49;69.84;100998.72;2021659;28;2725266;-77
2023/01/13 02:32:19;;;;;;;;;0.00;0.00;;;;;12.45;69.35;100997.09;2006345;28;2733616;-77
2023/01/13 02:33:40;;;;;;;;;0.00;0.00;;;;;12.42;69.52;100994.59;2014083;28;2727398;-77
2023/01/13 02:35:17;;;;;;;;;0.67;0.00;;;;;12.40;69.62;100999.91;2013909;28;2723178;-77
2023/01/13 02:36:45;;;;;;;;;0.00;0.00;;;;;12.37;69.47;100998.22;2009877;28;2727334;-77
2023/01/13 02:38:01;;;;;;;;;0.00;0.00;;;;;12.35;69.79;100997.44;2007013;28;2723194;-77
2023/01/13 02:39:39;;;;;;;;;2.67;0.00;;;;;12.33;69.59;101001.91;2019168;28;2741955;-77
2023/01/13 02:44:27;;;;;;;;;0.83;0.00;;;;;12.24;69.68;101010.16;1983829;28;2740879;-77
2023/01/13 02:45:49;;;;;;;;;0.00;0.00;;;;;12.22;69.70;101006.72;2013951;28;2725290;-77
2023/01/13 02:47:09;;;;;;;;;0.00;0.00;;;;;12.19;69.55;101009.44;2016375;28;2727346;-77
2023/01/13 02:48:25;;;;;;;;;1.67;0.00;;;;;12.16;69.85;101010.41;2006655;28;2731840;-77
2023/01/13 02:49:44;;;;;;;;;0.00;0.00;;;;;12.14;69.69;101013.13;2012130;28;2721135;-77
2023/01/13 02:51:15;;;;;;;;;0.00;0.00;;;;;12.12;69.94;101014.03;2011171;28;2724225;-77
2023/01/13 02:52:35;;;;;;;;;0.00;0.00;;;;;12.10;69.97;101007.97;2006391;28;2729452;-77
2023/01/13 02:54:03;;;;;;;;;1.00;0.00;;;;;12.07;69.74;101014.22;2006951;28;2725275;-77
2023/01/13 02:55:20;;;;;;;;;0.00;0.00;;;;;12.05;69.93;101013.38;2006777;28;2722170;-77
2023/01/13 02:56:40;;;;;;;;;0.00;0.00;;;;;12.03;69.74;101023.09;2007724;28;2729436;-77
2023/01/13 02:57:56;;;;;;;;;0.67;0.00;;;;;12.00;69.69;101018.81;2020923;28;2741921;-77
2023/01/13 02:59:11;;;;;;;;;0.00;0.00;;;;;11.99;69.91;101019.75;2012986;28;2725246;-78
2023/01/13 03:00:25;;;;;;;;;0.00;0.00;;;;;11.98;69.81;101018.00;2007312;28;2722137;-77
2023/01/13 03:01:39;;;;;;;;;0.00;0.00;;;;;11.97;69.74;101023.34;2011340;28;2719036;-77
2023/01/13 03:02:52;;;;;;;;;0.00;0.00;;;;;11.96;70.06;101021.59;2015255;28;2708588;-77
2023/01/13 03:04:13;;;;;;;;;0.00;0.00;;;;;11.93;69.89;101019.94;2014889;28;2722762;-77
2023/01/13 03:05:27;;;;;;;;;0.50;0.00;;;;;11.91;69.95;101029.66;2014777;28;2723228;-77
2023/01/13 03:07:00;;;;;;;;;0.00;0.00;;;;;11.89;69.96;101020.97;2014461;28;2727346;-77
2023/01/13 03:08:16;;;;;;;;;0.00;0.00;;;;;11.87;70.02;101033.31;2013812;28;2729494;-77
2023/01/13 03:09:40;;;;;;;;;0.00;0.00;;;;;11.85;70.17;101022.84;2020940;28;2725652;-77
2023/01/13 03:11:04;;;;;;;;;0.00;0.00;;;;;11.84;69.83;101030.78;2013768;28;2733591;-77
2023/01/13 03:12:34;;;;;;;;;0.00;0.00;;;;;11.81;70.19;101039.66;2006356;28;2721112;-77
2023/01/13 03:14:14;;;;;;;;;0.67;0.17;;;;;11.78;70.46;101035.34;2005985;28;2737774;-77
2023/01/13 03:15:42;;;;;;;;;0.00;0.00;;;;;11.77;70.15;101045.94;1996183;28;2733630;-77
2023/01/13 03:17:07;;;;;;;;;1.33;0.00;;;;;11.75;70.52;101050.41;1995171;28;2731508;-78
2023/01/13 03:18:29;;;;;;;;;0.00;0.00;;;;;11.74;70.45;101048.66;2014566;28;2722134;-77
2023/01/13 03:19:52;;;;;;;;;0.00;0.00;;;;;11.73;70.67;101047.81;2011258;28;2733603;-77
2023/01/13 03:21:14;;;;;;;;;0.00;0.00;;;;;11.73;70.81;101057.50;2010207;28;2708633;-77
2023/01/13 03:22:41;;;;;;;;;0.50;0.00;;;;;11.72;69.75;101047.84;2005797;28;2733632;-77
2023/01/13 03:23:59;;;;;;;;;0.17;0.00;;;;;11.72;70.38;101055.75;2006739;28;2725239;-77
2023/01/13 03:25:23;;;;;;;;;0.17;0.00;;;;;11.72;70.29;101045.22;2006317;28;2710707;-77
2023/01/13 03:26:52;;;;;;;;;0.67;0.00;;;;;11.72;70.18;101040.81;2007204;28;2733634;-77
2023/01/13 03:28:16;;;;;;;;;0.50;0.00;;;;;11.74;70.51;101054.81;1991129;28;2713800;-77
2023/01/13 03:29:35;;;;;;;;;1.33;0.00;;;;;11.75;70.29;101050.41;2013062;28;2728900;-77
2023/01/13 03:30:57;;;;;;;;;0.50;0.00;;;;;11.75;70.00;101038.09;2014326;28;2727358;-77
2023/01/13 03:32:21;;;;;;;;;0.00;0.00;;;;;11.78;70.61;101047.66;2013608;28;2740890;-77
2023/01/13 03:33:50;;;;;;;;;0.00;0.00;;;;;11.79;70.64;101041.47;1991417;28;2725290;-77
2023/01/13 03:35:20;;;;;;;;;0.00;0.00;;;;;11.81;70.49;101040.53;2013711;28;2729418;-77
2023/01/13 03:36:36;;;;;;;;;0.00;0.00;;;;;11.84;70.76;101044.81;2013473;28;2719028;-77
2023/01/13 03:37:59;;;;;;;;;0.00;0.00;;;;;11.85;70.55;101050.97;2013398;28;2742055;-77
2023/01/13 03:39:20;;;;;;;;;0.00;0.00;;;;;11.86;70.58;101045.63;2014043;28;2725282;-77
2023/01/13 03:40:39;;;;;;;;;0.33;0.00;;;;;11.87;70.18;101054.41;2013370;28;2733615;-77
2023/01/13 03:42:17;;;;;;;;;0.50;0.00;;;;;11.87;69.70;101057.91;2013286;28;2727334;-77
2023/01/13 03:45:15;;;;;;;;;1.00;1.00;;;;;11.84;69.46;101060.63;2011009;28;2733607;-77
2023/01/13 03:46:44;;;;;;;;;0.67;0.00;;;;;11.85;70.08;101062.38;2014759;28;2717983;-77
2023/01/13 03:48:00;;;;;;;;;1.00;0.00;;;;;11.87;69.86;101064.94;2005727;28;2728398;-77
2023/01/13 03:49:18;;;;;;;;;1.17;0.50;;;;;11.89;70.02;101063.97;2005406;28;2733591;-77
2023/01/13 03:50:38;;;;;;;;;0.67;0.00;;;;;11.90;69.55;101078.00;2006444;28;2725265;-77
2023/01/13 03:51:57;;;;;;;;;0.00;0.00;;;;;11.89;69.36;101053.44;2006512;28;2719009;-77
2023/01/13 03:53:17;;;;;;;;;0.83;0.33;;;;;11.92;69.78;101063.88;2005242;28;2725258;-77
2023/01/13 03:54:35;;;;;;;;;1.17;0.00;;;;;11.93;69.99;101057.69;2005700;28;2737781;-77
2023/01/13 03:55:59;;;;;;;;;2.00;0.00;;;;;11.96;70.18;101063.75;1990685;28;2733619;-77
2023/01/13 03:57:16;;;;;;;;;2.50;0.00;;;;;11.97;69.95;101049.69;2007150;28;2732542;-78
2023/01/13 03:58:38;;;;;;;;;1.50;0.00;;;;;11.98;69.87;101048.75;1989909;28;2733628;-77
2023/01/13 03:59:57;;;;;;;;;0.83;0.00;;;;;11.99;69.82;101043.44;2005752;28;2725272;-77
2023/01/13 04:01:31;;;;;;;;;2.50;0.00;;;;;12.01;69.54;101040.75;2007330;28;2733588;-77
2023/01/13 04:02:47;;;;;;;;;0.50;0.00;;;;;12.01;69.91;101046.03;2010567;28;2712755;-77
2023/01/13 04:04:13;;;;;;;;;1.00;0.00;;;;;12.02;70.26;101030.19;2005689;28;2731536;-77
2023/01/13 04:05:27;;;;;;;;;0.00;0.00;;;;;12.04;69.89;101032.75;1990446;28;2725263;-78
2023/01/13 04:06:46;;;;;;;;;2.00;0.00;;;;;12.05;69.93;101026.56;2008515;28;2724257;-77
2023/01/13 04:08:05;;;;;;;;;0.00;0.00;;;;;12.06;70.23;101040.59;2006233;28;2714866;-77
2023/01/13 04:09:30;;;;;;;;;0.00;0.00;;;;;12.06;69.36;101049.34;2005804;28;2736740;-77
2023/01/13 04:10:52;;;;;;;;;0.50;0.00;;;;;12.06;68.99;101038.81;1990086;28;2739834;-77
2023/01/13 04:12:59;;;;;;;;;2.00;0.00;;;;;12.06;69.42;101054.63;1987586;28;2735675;-77
2023/01/13 04:14:03;;;;;;;;;0.50;0.00;;;;;12.06;69.00;101056.41;2013951;28;2729429;-77
2023/01/13 04:15:21;;;;;;;;;0.00;0.00;;;;;12.04;69.05;101051.19;2013550;28;2725270;-77
2023/01/13 04:16:34;;;;;;;;;0.00;0.00;;;;;12.06;68.99;101054.63;2009393;28;2727342;-77
2023/01/13 04:17:48;;;;;;;;;1.33;0.00;;;;;12.06;69.23;101054.63;2005193;28;2733610;-77
2023/01/13 04:19:01;;;;;;;;;0.00;0.00;;;;;12.06;69.35;101056.41;2006190;28;2727334;-78
2023/01/13 04:20:15;;;;;;;;;0.33;0.00;;;;;12.07;69.57;101061.63;2005622;28;2727724;-77
2023/01/13 04:21:29;;;;;;;;;3.00;0.00;;;;;12.07;69.32;101064.28;2006067;28;2726335;-78
2023/01/13 04:22:42;;;;;;;;;0.00;0.00;;;;;12.07;68.58;101056.38;2012890;28;2731535;-77
2023/01/13 04:23:55;;;;;;;;;1.17;0.00;;;;;12.07;68.92;101064.28;2018573;28;2733595;-77
2023/01/13 04:25:10;;;;;;;;;1.00;0.00;;;;;12.08;68.52;101073.00;1990084;28;2728423;-77
2023/01/13 04:26:23;;;;;;;;;0.00;0.00;;;;;12.07;68.29;101071.31;2020797;28;2733591;-78
2023/01/13 04:27:36;;;;;;;;;0.33;0.00;;;;;12.07;68.63;101066.03;2019262;28;2725273;-77
2023/01/13 04:28:50;;;;;;;;;0.00;0.00;;;;;12.06;68.30;101065.16;2013443;28;2727377;-77
2023/01/13 04:30:04;;;;;;;;;0.83;0.00;;;;;12.06;68.63;101067.81;1991159;28;2727361;-77
2023/01/13 04:31:18;;;;;;;;;0.83;0.00;;;;;12.06;68.48;101070.44;2012794;28;2729493;-78
2023/01/13 04:32:31;;;;;;;;;0.00;0.00;;;;;12.06;68.53;101067.81;2013329;28;2721600;-78
2023/01/13 04:33:44;;;;;;;;;0.67;0.00;;;;;12.06;68.72;101070.44;2013634;28;2733635;-77
2023/01/13 04:34:57;;;;;;;;;1.33;0.00;;;;;12.06;68.18;101070.44;2019379;28;2729513;-77
2023/01/13 04:36:11;;;;;;;;;3.33;1.00;;;;;12.07;68.50;101071.31;2013301;28;2732578;-77
2023/01/13 04:37:24;;;;;;;;;1.00;0.00;;;;;12.05;67.81;101081.88;1988212;28;2729433;-78
2023/01/13 04:38:37;;;;;;;;;0.50;0.00;;;;;12.04;68.65;101085.44;2013537;28;2725613;-77
2023/01/13 04:39:50;;;;;;;;;0.00;0.00;;;;;12.03;68.02;101079.31;2013715;28;2725306;-78
2023/01/13 04:41:03;;;;;;;;;0.67;0.00;;;;;12.03;68.01;101084.56;2020521;28;2733603;-77
2023/01/13 04:42:17;;;;;;;;;0.33;0.00;;;;;12.04;68.18;101088.06;2018774;28;2723194;-78
2023/01/13 04:43:30;;;;;;;;;0.17;0.00;;;;;12.03;68.13;101087.22;2012545;28;2725278;-77
2023/01/13 04:44:43;;;;;;;;;0.00;0.00;;;;;12.03;67.37;101091.59;2013682;28;2727364;-78
2023/01/13 04:45:56;;;;;;;;;0.00;0.00;;;;;12.02;67.45;101084.63;2024703;28;2731517;-78
2023/01/13 04:47:09;;;;;;;;;0.50;0.00;;;;;12.02;67.47;101089.91;2005553;28;2724229;-78
2023/01/13 04:48:22;;;;;;;;;0.33;0.00;;;;;12.01;67.31;101086.41;2004452;28;2725274;-78
2023/01/13 04:49:36;;;;;;;;;0.17;0.00;;;;;11.99;67.01;101095.28;1983534;28;2735702;-78
2023/01/13 04:50:49;;;;;;;;;1.17;0.00;;;;;11.97;67.32;101092.69;2013330;28;2733631;-78
2023/01/13 04:52:02;;;;;;;;;2.00;0.00;;;;;11.96;66.58;101092.72;1989026;28;2729452;-78
2023/01/13 04:53:15;;;;;;;;;2.17;0.17;;;;;11.95;66.92;101093.66;2011009;28;2729433;-78
2023/01/13 04:54:29;;;;;;;;;0.00;0.00;;;;;11.93;67.22;101091.06;1982138;28;2729804;-78
2023/01/13 04:55:43;;;;;;;;;4.83;0.00;;;;;11.91;67.25;101093.75;2013058;28;2733603;-78
2023/01/13 04:56:56;;;;;;;;;0.00;0.00;;;;;11.92;67.19;101099.88;1988620;28;2727353;-78
2023/01/13 04:58:10;;;;;;;;;2.50;0.00;;;;;11.91;67.26;101106.06;2005924;28;2726335;-78
2023/01/13 04:59:23;;;;;;;;;1.33;0.00;;;;;11.90;67.02;101105.19;2006100;28;2724261;-78
2023/01/13 05:00:36;;;;;;;;;0.00;0.00;;;;;11.88;67.16;101117.56;2005634;28;2729489;-78
2023/01/13 05:01:50;;;;;;;;;1.50;0.00;;;;;11.87;66.40;101109.72;2012768;28;2726339;-78
2023/01/13 05:03:03;;;;;;;;;0.67;0.00;;;;;11.85;66.48;101122.94;2013103;28;2735683;-78
2023/01/13 05:04:16;;;;;;;;;0.33;0.00;;;;;11.80;65.43;101119.59;1990580;28;2730845;-77
2023/01/13 05:05:30;;;;;;;;;0.50;0.33;;;;;11.79;65.69;101125.75;2013484;28;2727358;-77
2023/01/13 05:06:44;;;;;;;;;1.17;0.67;;;;;11.75;66.15;101118.88;1990225;28;2731520;-77
2023/01/13 05:07:57;;;;;;;;;1.50;0.00;;;;;11.73;65.88;101120.69;2013549;28;2725286;-78
2023/01/13 05:09:12;;;;;;;;;1.50;0.00;;;;;11.71;65.93;101118.09;2012096;28;2737777;-78
2023/01/13 05:10:26;;;;;;;;;1.33;0.00;;;;;11.69;66.11;101120.78;2011171;28;2739869;-78
2023/01/13 05:17:46;;;;;;;;;2.33;0.00;;;;;11.62;65.64;101116.63;2005497;28;2735682;-78
2023/01/13 05:18:59;;;;;;;;;0.17;0.00;;;;;11.60;65.76;101115.81;2012942;28;2725275;-78
2023/01/13 05:20:13;;;;;;;;;0.00;0.00;;;;;11.57;65.77;101115.91;1989947;28;2734081;-78
2023/01/13 05:26:02;;;;;;;;;1.83;0.00;;;;;11.52;65.78;101125.72;1982644;28;2730586;-78
2023/01/13 05:27:15;;;;;;;;;0.83;0.00;;;;;11.51;65.22;101126.63;2019044;28;2727868;-78
2023/01/13 05:28:33;;;;;;;;;2.00;0.17;;;;;11.50;66.37;101135.44;1996079;28;2733630;-77
2023/01/13 05:29:46;;;;;;;;;0.83;0.17;;;;;11.48;65.87;101138.97;2013274;28;2728506;-78
2023/01/13 05:31:00;;;;;;;;;2.00;0.00;;;;;11.48;66.25;101131.06;1990114;28;2734653;-78
2023/01/13 05:32:13;;;;;;;;;0.67;0.33;;;;;11.46;66.38;101135.50;2007238;28;2735671;-78
2023/01/13 05:33:26;;;;;;;;;0.00;0.00;;;;;11.45;65.74;101133.81;2003966;28;2731504;-78
2023/01/13 05:34:40;;;;;;;;;0.00;0.00;;;;;11.45;65.80;101154.00;2005254;28;2725314;-78
2023/01/13 05:35:53;;;;;;;;;0.67;0.67;;;;;11.44;66.05;101160.16;2005082;28;2733968;-78
2023/01/13 05:37:07;;;;;;;;;2.17;0.17;;;;;11.43;65.93;101166.34;2004837;28;2737763;-78
2023/01/13 05:38:20;;;;;;;;;0.33;0.00;;;;;11.42;66.09;101170.75;1982326;28;2733623;-78
2023/01/13 05:44:10;;;;;;;;;2.67;0.00;;;;;11.42;66.13;101177.78;1991215;28;2732001;-78
2023/01/13 05:45:24;;;;;;;;;0.00;0.00;;;;;11.39;66.08;101170.81;2013132;28;2726300;-78
2023/01/13 05:46:37;;;;;;;;;1.17;0.00;;;;;11.39;65.67;101167.31;2019842;28;2731532;-78
2023/01/13 05:47:50;;;;;;;;;2.50;0.00;;;;;11.38;65.83;101170.88;2006682;28;2735720;-78
2023/01/13 05:49:04;;;;;;;;;2.33;0.00;;;;;11.38;65.53;101173.50;1987893;28;2733598;-78
2023/01/13 05:50:17;;;;;;;;;0.33;0.33;;;;;11.35;65.83;101174.47;2011991;28;2734657;-78
2023/01/13 05:51:30;;;;;;;;;0.00;0.00;;;;;11.34;65.88;101167.47;1984112;28;2727365;-78
2023/01/13 05:52:44;;;;;;;;;0.17;0.00;;;;;11.33;66.26;101166.59;2013665;28;2733592;-78
2023/01/13 05:53:58;;;;;;;;;0.50;0.50;;;;;11.33;66.46;101166.59;2012278;28;2726296;-78
2023/01/13 05:55:11;;;;;;;;;1.33;0.00;;;;;11.35;66.25;101169.19;2006507;28;2735683;-78
2023/01/13 05:56:24;;;;;;;;;3.50;0.17;;;;;11.34;65.96;101163.06;2013557;28;2728387;-78
2023/01/13 05:57:37;;;;;;;;;1.83;0.00;;;;;11.34;65.99;101173.59;1991448;28;2726786;-78
2023/01/13 05:58:50;;;;;;;;;0.00;0.00;;;;;11.34;66.23;101170.09;2016188;28;2725274;-78
2023/01/13 06:00:04;;;;;;;;;3.50;0.83;;;;;11.33;65.52;101178.91;2019297;28;2739848;-78
2023/01/13 06:01:17;;;;;;;;;1.67;0.00;;;;;11.30;65.78;101171.97;1983584;28;2731519;-78
2023/01/13 06:02:31;;;;;;;;;2.67;0.00;;;;;11.29;65.51;101190.41;2007044;28;2727361;-78
2023/01/13 06:03:44;;;;;;;;;0.67;0.67;;;;;11.27;65.20;101182.56;1983115;28;2737758;-78
2023/01/13 06:04:58;;;;;;;;;1.67;0.00;;;;;11.27;65.23;101186.97;2006255;28;2733612;-78
2023/01/13 06:06:11;;;;;;;;;0.33;0.17;;;;;11.25;65.31;101189.66;2006721;28;2723195;-78
2023/01/13 06:07:24;;;;;;;;;3.00;1.00;;;;;11.23;65.49;101187.06;2005037;28;2740883;-78
2023/01/13 06:08:37;;;;;;;;;1.50;1.50;;;;;11.24;65.56;101193.19;1983502;28;2729434;-78
2023/01/13 06:09:50;;;;;;;;;2.17;0.50;;;;;11.23;65.34;101192.34;2014693;28;2735706;-78
2023/01/13 06:11:04;;;;;;;;;1.00;0.00;;;;;11.22;65.13;101190.59;1982824;28;2732546;-78
2023/01/13 06:12:17;;;;;;;;;2.00;0.67;;;;;11.22;65.21;101195.00;2005947;28;2735686;-78
2023/01/13 06:13:30;;;;;;;;;5.67;0.33;;;;;11.20;64.81;101197.69;2013199;28;2735683;-78
2023/01/13 06:14:43;;;;;;;;;1.33;1.00;;;;;11.20;65.28;101195.06;1989069;28;2743527;-78
2023/01/13 06:15:57;;;;;;;;;2.33;1.00;;;;;11.21;65.31;101198.56;1994135;28;2737881;-78
2023/01/13 06:17:13;;;;;;;;;1.67;0.33;;;;;11.21;65.40;101203.81;2009511;28;2742040;-78
2023/01/13 06:18:27;;;;;;;;;2.17;0.83;;;;;11.19;65.19;101206.47;1989842;28;2746083;-78
2023/01/13 06:19:41;;;;;;;;;2.50;1.00;;;;;11.19;65.46;101202.97;1991809;28;2728402;-78